^^
Historische Daten
 
Tag Summe für April 19, 2019 Einheit:  Metric    English   Beide
« vorheriger Tag
nächster Tag »
Tag Woche Monat Jahr Benutzerdefiniert
  Aktuell: Max: Min: Durchschnitt:
Temperatur: 12.3 °C 16.9 °C 6.2 °C 12.1 °C
Tau Punkt: 0.7 °C 4.2 °C -2.6 °C 1.3 °C
Luftfeuchte: 45% 73% 28% 50%
Windgeschwindigkeit: 7.4km/h 29.6km/h 0.0km/h 12.2km/h
Wind Böen: 4.3km/h 19.0km/h - -
WindESE - - ESE
Luftdruck: 1030.2 hPa 1031.5 hPa 1029.0 hPa -
Niederschlag: 0.0 mm      
Historical Graphs
 
 
Tabellendaten für April 19, 2019
Zeit Temperatur Tau Punkt Luftdruck Wind Windgeschwindigkeit Wind Böen Luftfeuchte Regen Rate (Stunde) Solar Conditions
00:04 9.9 °C 2.5 °C 1029.0 hPa SSE 18.5 km/h 15.9 km/h 60% 0.0 mm 0.00 W/m2 CLR
00:09 9.8 °C 2.7 °C 1029.1 hPa SSE 20.4 km/h 11.4 km/h 61% 0.0 mm 0.00 W/m2 CLR
00:14 9.7 °C 2.5 °C 1029.1 hPa SSE 18.5 km/h 10.8 km/h 61% 0.0 mm 0.00 W/m2 CLR
00:19 9.3 °C 2.7 °C 1029.1 hPa SSE 16.7 km/h 11.7 km/h 63% 0.0 mm 0.00 W/m2 CLR
00:24 9.3 °C 2.6 °C 1029.2 hPa SSE 16.7 km/h 9.5 km/h 63% 0.0 mm 0.00 W/m2 CLR
00:29 9.2 °C 2.5 °C 1029.2 hPa SE 18.5 km/h 11.6 km/h 63% 0.0 mm 0.00 W/m2 CLR
00:34 9.1 °C 2.4 °C 1029.3 hPa SSE 15.3 km/h 10.9 km/h 63% 0.0 mm 0.00 W/m2 CLR
00:39 9.1 °C 2.7 °C 1029.4 hPa SSE 14.8 km/h 9.0 km/h 64% 0.0 mm 0.00 W/m2 CLR
00:44 9.1 °C 2.7 °C 1029.4 hPa SSE 15.3 km/h 9.7 km/h 64% 0.0 mm 0.00 W/m2 CLR
00:49 9.1 °C 2.7 °C 1029.5 hPa SSE 16.7 km/h 6.4 km/h 64% 0.0 mm 0.00 W/m2 CLR
00:54 8.9 °C 2.7 °C 1029.4 hPa South 11.1 km/h 5.6 km/h 65% 0.0 mm 0.00 W/m2 CLR
00:59 8.8 °C 2.6 °C 1029.4 hPa South 3.7 km/h 4.2 km/h 65% 0.0 mm 0.00 W/m2 CLR
01:04 8.7 °C 2.4 °C 1029.4 hPa South 5.6 km/h 1.6 km/h 65% 0.0 mm 0.00 W/m2 CLR
01:09 8.6 °C 2.6 °C 1029.4 hPa South 7.4 km/h 4.7 km/h 66% 0.0 mm 0.00 W/m2 CLR
01:14 8.6 °C 2.6 °C 1029.4 hPa SSW 9.3 km/h 3.7 km/h 66% 0.0 mm 0.00 W/m2 CLR
01:19 8.4 °C 2.4 °C 1029.3 hPa South 5.6 km/h 3.2 km/h 66% 0.0 mm 0.00 W/m2 CLR
01:24 8.3 °C 2.6 °C 1029.4 hPa SSW 9.3 km/h 4.3 km/h 67% 0.0 mm 0.00 W/m2 CLR
01:29 8.2 °C 2.4 °C 1029.2 hPa South 5.6 km/h 3.1 km/h 67% 0.0 mm 0.00 W/m2 CLR
01:34 8.2 °C 2.4 °C 1029.2 hPa SSW 14.8 km/h 4.0 km/h 67% 0.0 mm 0.00 W/m2 CLR
01:39 8.2 °C 2.4 °C 1029.2 hPa South 10.1 km/h 4.0 km/h 67% 0.0 mm 0.00 W/m2 CLR
01:44 8.3 °C 2.5 °C 1029.2 hPa SSE 9.3 km/h 4.5 km/h 67% 0.0 mm 0.00 W/m2 CLR
01:49 8.2 °C 2.4 °C 1029.1 hPa SSE 9.3 km/h 5.1 km/h 67% 0.0 mm 0.00 W/m2 CLR
01:54 8.2 °C 2.4 °C 1029.1 hPa South 5.6 km/h 3.2 km/h 67% 0.0 mm 0.00 W/m2 CLR
01:59 8.2 °C 2.4 °C 1029.2 hPa South 9.3 km/h 6.1 km/h 67% 0.0 mm 0.00 W/m2 CLR
02:04 8.2 °C 2.4 °C 1029.2 hPa SSE 11.1 km/h 6.4 km/h 67% 0.0 mm 0.00 W/m2 CLR
02:09 8.1 °C 2.3 °C 1029.2 hPa SSE 9.3 km/h 4.0 km/h 67% 0.0 mm 0.00 W/m2 CLR
02:14 8.1 °C 2.3 °C 1029.2 hPa SSE 9.3 km/h 4.8 km/h 67% 0.0 mm 0.00 W/m2 CLR
02:19 7.9 °C 2.2 °C 1029.2 hPa SSE 9.3 km/h 5.0 km/h 67% 0.0 mm 0.00 W/m2 CLR
02:24 7.7 °C 2.1 °C 1029.2 hPa SE 7.4 km/h 4.0 km/h 68% 0.0 mm 0.00 W/m2 CLR
02:29 7.5 °C 2.2 °C 1029.1 hPa SE 5.6 km/h 3.2 km/h 69% 0.0 mm 0.00 W/m2 CLR
02:34 7.4 °C 2.1 °C 1029.2 hPa SSE 9.3 km/h 5.0 km/h 69% 0.0 mm 0.00 W/m2 CLR
02:39 7.5 °C 2.2 °C 1029.1 hPa SSE 9.3 km/h 1.4 km/h 69% 0.0 mm 0.00 W/m2 CLR
02:44 7.5 °C 2.2 °C 1029.1 hPa Calm     69% 0.0 mm 0.00 W/m2 CLR
02:49 7.1 °C 1.8 °C 1029.2 hPa Calm     69% 0.0 mm 0.00 W/m2 CLR
02:54 6.5 °C 1.6 °C 1029.2 hPa SSE 1.6 km/h   71% 0.0 mm 0.00 W/m2 CLR
02:59 6.3 °C 1.6 °C 1029.2 hPa NE 1.6 km/h   72% 0.0 mm 0.00 W/m2 CLR
03:04 6.2 °C 1.7 °C 1029.4 hPa North 3.7 km/h 2.4 km/h 73% 0.0 mm 0.00 W/m2 CLR
03:09 6.4 °C 1.9 °C 1029.5 hPa North 3.7 km/h   73% 0.0 mm 0.00 W/m2 CLR
03:14 6.7 °C 2.0 °C 1029.4 hPa North 5.6 km/h 0.2 km/h 72% 0.0 mm 0.00 W/m2 CLR
03:19 6.8 °C 1.9 °C 1029.4 hPa East 5.6 km/h 1.1 km/h 71% 0.0 mm 0.00 W/m2 CLR
03:24 6.9 °C 1.8 °C 1029.5 hPa East 3.4 km/h 0.2 km/h 70% 0.0 mm 0.00 W/m2 CLR
03:29 7.2 °C 1.8 °C 1029.4 hPa East 1.9 km/h 0.2 km/h 69% 0.0 mm 0.00 W/m2 CLR
03:34 7.6 °C 2.1 °C 1029.4 hPa ENE 5.6 km/h 0.5 km/h 68% 0.0 mm 0.00 W/m2 CLR
03:39 7.8 °C 2.1 °C 1029.4 hPa Calm     67% 0.0 mm 0.00 W/m2 CLR
03:44 7.9 °C 2.1 °C 1029.5 hPa ENE 3.7 km/h   67% 0.0 mm 0.00 W/m2 CLR
03:49 8.1 °C 2.1 °C 1029.5 hPa East 3.7 km/h 1.4 km/h 66% 0.0 mm 0.00 W/m2 CLR
03:54 8.3 °C 2.1 °C 1029.4 hPa ESE 5.6 km/h 3.4 km/h 65% 0.0 mm 0.00 W/m2 CLR
03:59 8.3 °C 2.1 °C 1029.5 hPa ESE 5.6 km/h 0.8 km/h 65% 0.0 mm 0.00 W/m2 CLR
04:04 8.3 °C 2.1 °C 1029.5 hPa East 9.3 km/h 4.2 km/h 65% 0.0 mm 0.00 W/m2 CLR
04:09 8.2 °C 2.0 °C 1029.5 hPa ESE 7.4 km/h 3.2 km/h 65% 0.0 mm 0.00 W/m2 CLR
04:14 8.1 °C 2.1 °C 1029.4 hPa ESE 7.4 km/h 3.4 km/h 66% 0.0 mm 0.00 W/m2 CLR
04:19 8.1 °C 2.1 °C 1029.5 hPa ESE 5.6 km/h 4.3 km/h 66% 0.0 mm 0.00 W/m2 CLR
04:24 8.0 °C 2.1 °C 1029.5 hPa ESE 5.6 km/h 3.9 km/h 66% 0.0 mm 0.00 W/m2 CLR
04:29 8.0 °C 2.1 °C 1029.5 hPa ESE 7.4 km/h 6.3 km/h 66% 0.0 mm 0.00 W/m2 CLR
04:34 7.9 °C 2.1 °C 1029.5 hPa ESE 5.6 km/h 4.0 km/h 67% 0.0 mm 0.00 W/m2 CLR
04:39 7.7 °C 2.0 °C 1029.6 hPa ESE 5.6 km/h 4.5 km/h 67% 0.0 mm 0.00 W/m2 CLR
04:44 7.8 °C 2.1 °C 1029.6 hPa ESE 7.4 km/h 3.9 km/h 67% 0.0 mm 0.00 W/m2 CLR
04:49 7.7 °C 2.0 °C 1029.7 hPa ESE 7.4 km/h 2.1 km/h 67% 0.0 mm 0.00 W/m2 CLR
04:54 7.6 °C 2.0 °C 1029.7 hPa ESE 3.4 km/h 3.5 km/h 68% 0.0 mm 0.00 W/m2 CLR
04:59 7.6 °C 2.0 °C 1029.7 hPa ESE 7.4 km/h 5.3 km/h 68% 0.0 mm 0.00 W/m2 CLR
05:04 7.7 °C 2.1 °C 1029.7 hPa SE 7.4 km/h 5.1 km/h 68% 0.0 mm 0.00 W/m2 CLR
05:09 7.7 °C 2.1 °C 1029.7 hPa SE 3.7 km/h 1.8 km/h 68% 0.0 mm 0.00 W/m2 CLR
05:14 7.6 °C 2.0 °C 1029.7 hPa East 7.4 km/h 2.4 km/h 68% 0.0 mm 0.00 W/m2 CLR
05:19 7.4 °C 2.1 °C 1029.8 hPa East 7.4 km/h 0.2 km/h 69% 0.0 mm 0.00 W/m2 CLR
05:24 7.2 °C 2.1 °C 1029.9 hPa East 5.6 km/h 0.8 km/h 70% 0.0 mm 0.00 W/m2 CLR
05:29 6.8 °C 1.9 °C 1029.9 hPa East 1.9 km/h   71% 0.0 mm 0.00 W/m2 CLR
05:34 6.6 °C 1.9 °C 1029.9 hPa SE 1.9 km/h 0.5 km/h 72% 0.0 mm 0.00 W/m2 CLR
05:39 6.5 °C 1.8 °C 1030.0 hPa SE 3.7 km/h 3.2 km/h 72% 0.0 mm 0.00 W/m2 CLR
05:44 6.5 °C 2.0 °C 1030.0 hPa SE 3.4 km/h 1.1 km/h 73% 0.0 mm 0.00 W/m2 CLR
05:49 6.7 °C 2.2 °C 1030.0 hPa SE 5.6 km/h 4.0 km/h 73% 0.0 mm 0.00 W/m2 CLR
05:54 6.8 °C 2.1 °C 1030.0 hPa SE 7.4 km/h 1.6 km/h 72% 0.0 mm 0.00 W/m2 CLR
05:59 6.9 °C 2.2 °C 1030.0 hPa SE 7.4 km/h 3.9 km/h 72% 0.0 mm 0.00 W/m2 CLR
06:04 7.1 °C 2.3 °C 1030.0 hPa ESE 5.6 km/h 3.4 km/h 72% 0.0 mm 0.00 W/m2 OVC
06:09 7.1 °C 2.2 °C 1030.1 hPa ESE 5.6 km/h 2.1 km/h 71% 0.0 mm 5.00 W/m2 OVC
06:14 7.2 °C 2.3 °C 1030.1 hPa ESE 3.7 km/h 0.8 km/h 71% 0.0 mm 7.00 W/m2 CLR
06:19 7.2 °C 2.4 °C 1030.1 hPa ESE 7.4 km/h 4.7 km/h 72% 0.0 mm 11.00 W/m2 SCT
06:24 7.3 °C 2.4 °C 1030.1 hPa ESE 1.9 km/h 1.4 km/h 71% 0.0 mm 12.00 W/m2 SCT
06:29 7.3 °C 2.4 °C 1030.2 hPa SE 7.4 km/h 0.6 km/h 71% 0.0 mm 16.00 W/m2 BKN
06:34 7.3 °C 2.4 °C 1030.2 hPa SE 3.7 km/h 2.1 km/h 71% 0.0 mm 18.00 W/m2 BKN
06:39 7.2 °C 2.3 °C 1030.2 hPa SE 3.4 km/h 3.7 km/h 71% 0.0 mm 21.00 W/m2 BKN
06:44 7.3 °C 2.4 °C 1030.2 hPa SE 3.7 km/h 1.0 km/h 71% 0.0 mm 32.00 W/m2 SCT
06:49 7.6 °C 2.4 °C 1030.3 hPa SE 1.9 km/h 0.6 km/h 70% 0.0 mm 40.00 W/m2 SCT
06:54 7.8 °C 2.5 °C 1030.3 hPa Calm     69% 0.0 mm 51.00 W/m2 SCT
06:59 8.1 °C 2.7 °C 1030.3 hPa SE 1.9 km/h 1.6 km/h 69% 0.0 mm 63.00 W/m2 SCT
07:04 8.2 °C 2.7 °C 1030.3 hPa Calm     68% 0.0 mm 76.00 W/m2 FEW
07:09 8.4 °C 2.7 °C 1030.4 hPa SE 3.7 km/h 0.2 km/h 67% 0.0 mm 86.00 W/m2 FEW
07:14 8.6 °C 2.6 °C 1030.4 hPa SE 3.7 km/h 1.6 km/h 66% 0.0 mm 102.00 W/m2 FEW
07:19 8.7 °C 2.7 °C 1030.4 hPa SE 7.4 km/h 3.4 km/h 66% 0.0 mm 118.00 W/m2 FEW
07:24 8.7 °C 2.7 °C 1030.4 hPa SE 3.4 km/h 0.8 km/h 66% 0.0 mm 134.00 W/m2 CLR
07:29 8.8 °C 2.6 °C 1030.4 hPa SE 7.4 km/h 3.9 km/h 65% 0.0 mm 153.00 W/m2 CLR
07:34 9.1 °C 2.8 °C 1030.5 hPa SSE 7.4 km/h 4.3 km/h 65% 0.0 mm 169.00 W/m2 CLR
07:39 9.2 °C 2.9 °C 1030.5 hPa ESE 7.4 km/h 1.3 km/h 65% 0.0 mm 183.00 W/m2 CLR
07:44 9.6 °C 3.1 °C 1030.5 hPa ESE 5.6 km/h 2.7 km/h 64% 0.0 mm 199.00 W/m2 CLR
07:49 9.7 °C 3.0 °C 1030.4 hPa SE 6.8 km/h 4.3 km/h 63% 0.0 mm 218.00 W/m2 CLR
07:54 10.1 °C 3.3 °C 1030.5 hPa ESE 9.3 km/h 5.1 km/h 63% 0.0 mm 234.00 W/m2 CLR
07:59 10.2 °C 3.2 °C 1030.4 hPa East 9.3 km/h 5.1 km/h 62% 0.0 mm 246.00 W/m2 CLR
08:04 10.4 °C 3.4 °C 1030.5 hPa East 11.1 km/h 4.8 km/h 62% 0.0 mm 262.00 W/m2 CLR
08:09 10.7 °C 3.4 °C 1030.5 hPa SE 9.3 km/h 6.9 km/h 61% 0.0 mm 278.00 W/m2 CLR
08:14 10.8 °C 3.3 °C 1030.4 hPa SE 14.8 km/h 4.5 km/h 60% 0.0 mm 288.00 W/m2 CLR
08:19 10.9 °C 3.5 °C 1030.5 hPa ESE 10.1 km/h 5.8 km/h 60% 0.0 mm 304.00 W/m2 CLR
08:24 11.3 °C 3.6 °C 1030.5 hPa East 8.4 km/h 7.1 km/h 59% 0.0 mm 320.00 W/m2 CLR
08:29 11.4 °C 3.4 °C 1030.5 hPa SE 11.1 km/h 9.8 km/h 58% 0.0 mm 336.00 W/m2 CLR
08:34 11.5 °C 3.5 °C 1030.5 hPa ENE 11.1 km/h 9.2 km/h 58% 0.0 mm 350.00 W/m2 CLR
08:39 11.7 °C 3.4 °C 1030.6 hPa ESE 11.1 km/h 5.3 km/h 57% 0.0 mm 362.00 W/m2 CLR
08:44 11.8 °C 3.3 °C 1030.7 hPa ESE 11.1 km/h 9.2 km/h 56% 0.0 mm 380.00 W/m2 CLR
08:49 12.2 °C 4.2 °C 1030.6 hPa ESE 10.1 km/h 5.5 km/h 58% 0.0 mm 390.00 W/m2 CLR
08:54 12.3 °C 3.6 °C 1030.7 hPa East 13.0 km/h 6.1 km/h 55% 0.0 mm 406.00 W/m2 CLR
08:59 12.4 °C 3.6 °C 1030.7 hPa SE 14.8 km/h 7.7 km/h 55% 0.0 mm 418.00 W/m2 CLR
09:04 12.7 °C 3.8 °C 1030.8 hPa East 9.3 km/h 8.7 km/h 55% 0.0 mm 432.00 W/m2 CLR
09:09 12.7 °C 3.8 °C 1030.8 hPa East 10.1 km/h 7.4 km/h 55% 0.0 mm 446.00 W/m2 CLR
09:14 13.2 °C 4.1 °C 1030.8 hPa East 11.1 km/h 11.1 km/h 54% 0.0 mm 462.00 W/m2 CLR
09:19 13.1 °C 2.9 °C 1030.9 hPa ENE 16.7 km/h 13.4 km/h 50% 0.0 mm 476.00 W/m2 CLR
09:24 12.9 °C 2.7 °C 1030.9 hPa SE 22.2 km/h 16.1 km/h 50% 0.0 mm 489.00 W/m2 CLR
09:29 12.8 °C 2.7 °C 1030.8 hPa ENE 13.0 km/h 9.2 km/h 50% 0.0 mm 504.00 W/m2 CLR
09:34 12.8 °C 2.4 °C 1031.0 hPa SE 20.4 km/h 11.1 km/h 49% 0.0 mm 515.00 W/m2 CLR
09:39 12.9 °C 2.8 °C 1031.0 hPa East 13.0 km/h 10.5 km/h 50% 0.0 mm 529.00 W/m2 CLR
09:44 13.2 °C 2.4 °C 1031.0 hPa SE 14.8 km/h 6.1 km/h 48% 0.0 mm 541.00 W/m2 CLR
09:49 13.5 °C 3.0 °C 1031.0 hPa East 16.7 km/h 11.6 km/h 49% 0.0 mm 557.00 W/m2 CLR
09:54 13.4 °C 2.1 °C 1031.1 hPa East 20.4 km/h 16.3 km/h 46% 0.0 mm 570.00 W/m2 CLR
09:59 13.3 °C 1.6 °C 1031.1 hPa East 24.1 km/h 11.9 km/h 45% 0.0 mm 580.00 W/m2 CLR
10:04 13.1 °C 1.1 °C 1031.2 hPa SSE 18.5 km/h 18.0 km/h 44% 0.0 mm 591.00 W/m2 CLR
10:09 13.2 °C 1.8 °C 1031.2 hPa SE 14.8 km/h 6.8 km/h 46% 0.0 mm 601.00 W/m2 CLR
10:14 13.6 °C 1.6 °C 1031.1 hPa South 13.0 km/h 9.8 km/h 44% 0.0 mm 613.00 W/m2 CLR
10:19 13.4 °C 0.8 °C 1031.2 hPa SSE 15.3 km/h 14.0 km/h 42% 0.0 mm 629.00 W/m2 CLR
10:24 13.7 °C 0.7 °C 1031.3 hPa SE 25.9 km/h 16.4 km/h 41% 0.0 mm 640.00 W/m2 CLR
10:29 13.7 °C 1.0 °C 1031.3 hPa ESE 18.5 km/h 14.6 km/h 42% 0.0 mm 650.00 W/m2 CLR
10:34 13.8 °C 0.8 °C 1031.3 hPa SE 22.2 km/h 15.9 km/h 41% 0.0 mm 661.00 W/m2 CLR
10:39 13.9 °C 0.6 °C 1031.4 hPa SE 25.9 km/h 17.9 km/h 40% 0.0 mm 670.00 W/m2 CLR
10:44 13.8 °C 0.7 °C 1031.4 hPa SE 29.6 km/h 15.8 km/h 41% 0.0 mm 679.00 W/m2 CLR
10:49 13.7 °C 1.0 °C 1031.4 hPa SE 20.4 km/h 10.6 km/h 42% 0.0 mm 691.00 W/m2 CLR
10:54 13.9 °C 0.8 °C 1031.5 hPa ESE 20.4 km/h 16.9 km/h 41% 0.0 mm 694.00 W/m2 CLR
10:59 14.0 °C 0.9 °C 1031.5 hPa ESE 18.5 km/h 17.2 km/h 41% 0.0 mm 705.00 W/m2 CLR
11:04 14.0 °C 0.6 °C 1031.5 hPa SE 22.2 km/h 12.9 km/h 40% 0.0 mm 715.00 W/m2 CLR
11:09 14.0 °C 0.6 °C 1031.4 hPa SE 22.2 km/h 14.6 km/h 40% 0.0 mm 724.00 W/m2 CLR
11:14 14.0 °C 0.9 °C 1031.5 hPa SSE 20.4 km/h 15.0 km/h 41% 0.0 mm 733.00 W/m2 CLR
11:19 13.9 °C 0.9 °C 1031.4 hPa SE 15.3 km/h 11.9 km/h 41% 0.0 mm 742.00 W/m2 CLR
11:24 14.1 °C 0.7 °C 1031.4 hPa SSE 24.1 km/h 13.4 km/h 40% 0.0 mm 749.00 W/m2 CLR
11:29 14.4 °C 0.9 °C 1031.4 hPa SSE 18.5 km/h 13.0 km/h 40% 0.0 mm 752.00 W/m2 CLR
11:34 14.3 °C 1.2 °C 1031.4 hPa South 24.1 km/h 17.1 km/h 41% 0.0 mm 756.00 W/m2 CLR
11:39 14.4 °C 1.0 °C 1031.3 hPa East 25.9 km/h 11.7 km/h 40% 0.0 mm 761.00 W/m2 CLR
11:44 14.4 °C 1.3 °C 1031.5 hPa East 24.1 km/h 15.1 km/h 41% 0.0 mm 765.00 W/m2 CLR
11:49 14.7 °C 1.2 °C 1031.4 hPa ESE 22.2 km/h 17.9 km/h 40% 0.0 mm 777.00 W/m2 CLR
11:54 14.3 °C 0.9 °C 1031.5 hPa SE 25.9 km/h 19.0 km/h 40% 0.0 mm 786.00 W/m2 CLR
11:59 14.5 °C 1.4 °C 1031.3 hPa SE 18.5 km/h 13.8 km/h 41% 0.0 mm 786.00 W/m2 CLR
12:04 14.8 °C 1.3 °C 1031.3 hPa ESE 25.9 km/h 12.1 km/h 40% 0.0 mm 788.00 W/m2 CLR
12:09 14.9 °C 1.8 °C 1031.2 hPa SSE 18.5 km/h 10.8 km/h 41% 0.0 mm 793.00 W/m2 CLR
12:14 14.9 °C 1.4 °C 1031.2 hPa ESE 22.2 km/h 13.4 km/h 40% 0.0 mm 793.00 W/m2 CLR
12:19 15.2 °C 1.7 °C 1031.2 hPa SE 22.2 km/h 15.8 km/h 40% 0.0 mm 802.00 W/m2 CLR
12:24 15.6 °C 2.0 °C 1031.2 hPa SSE 18.5 km/h 12.9 km/h 40% 0.0 mm 798.00 W/m2 CLR
12:29 15.7 °C 1.8 °C 1031.3 hPa East 22.2 km/h 14.8 km/h 39% 0.0 mm 809.00 W/m2 CLR
12:34 15.4 °C 1.6 °C 1031.1 hPa South 20.4 km/h 6.6 km/h 39% 0.0 mm 810.00 W/m2 CLR
12:39 15.4 °C 1.9 °C 1031.3 hPa SE 24.1 km/h 12.6 km/h 40% 0.0 mm 812.00 W/m2 CLR
12:44 15.3 °C 2.1 °C 1031.2 hPa ENE 18.5 km/h 12.9 km/h 41% 0.0 mm 819.00 W/m2 CLR
12:49 15.5 °C 1.6 °C 1031.1 hPa SE 24.1 km/h 8.7 km/h 39% 0.0 mm 819.00 W/m2 CLR
12:54 15.2 °C 1.3 °C 1031.1 hPa SE 24.1 km/h 10.3 km/h 39% 0.0 mm 816.00 W/m2 CLR
12:59 15.4 °C 1.9 °C 1031.2 hPa South 22.2 km/h 9.7 km/h 40% 0.0 mm 828.00 W/m2 CLR
13:04 15.3 °C 0.7 °C 1031.1 hPa SSE 24.1 km/h 10.0 km/h 37% 0.0 mm 826.00 W/m2 CLR
13:09 15.2 °C 1.0 °C 1031.2 hPa SE 22.2 km/h 13.4 km/h 38% 0.0 mm 817.00 W/m2 CLR
13:14 15.3 °C 1.4 °C 1031.2 hPa ENE 22.0 km/h 10.3 km/h 39% 0.0 mm 814.00 W/m2 CLR
13:19 15.7 °C 1.1 °C 1031.3 hPa ESE 24.1 km/h 11.4 km/h 37% 0.0 mm 819.00 W/m2 CLR
13:24 15.4 °C 0.4 °C 1031.1 hPa SE 18.5 km/h 8.0 km/h 36% 0.0 mm 821.00 W/m2 CLR
13:29 15.3 °C 1.1 °C 1031.1 hPa SSE 13.0 km/h 1.3 km/h 38% 0.0 mm 817.00 W/m2 CLR
13:34 15.8 °C 0.7 °C 1031.3 hPa ESE 18.5 km/h 15.8 km/h 36% 0.0 mm 816.00 W/m2 CLR
13:39 15.7 °C 1.4 °C 1031.1 hPa ESE 20.4 km/h 10.0 km/h 38% 0.0 mm 807.00 W/m2 CLR
13:44 15.6 °C 1.7 °C 1031.1 hPa SE 13.0 km/h 10.6 km/h 39% 0.0 mm 803.00 W/m2 CLR
13:49 16.1 °C 1.8 °C 1031.1 hPa NE 14.8 km/h 9.8 km/h 38% 0.0 mm 807.00 W/m2 CLR
13:54 16.3 °C 1.2 °C 1031.1 hPa SSE 20.4 km/h 14.6 km/h 36% 0.0 mm 807.00 W/m2 CLR
13:59 15.8 °C 0.7 °C 1031.1 hPa ESE 16.7 km/h 15.4 km/h 36% 0.0 mm 800.00 W/m2 CLR
14:04 16.1 °C 1.3 °C 1031.1 hPa SE 13.0 km/h 8.8 km/h 37% 0.0 mm 798.00 W/m2 CLR
14:09 16.6 °C 1.8 °C 1031.0 hPa ENE 13.5 km/h 10.6 km/h 37% 0.0 mm 795.00 W/m2 CLR
14:14 16.4 °C 1.3 °C 1031.0 hPa SE 14.8 km/h 6.1 km/h 36% 0.0 mm 789.00 W/m2 CLR
14:19 16.3 °C 1.2 °C 1031.1 hPa East 20.4 km/h 11.6 km/h 36% 0.0 mm 780.00 W/m2 CLR
14:24 15.9 °C 0.5 °C 1031.0 hPa NE 18.5 km/h 10.9 km/h 35% 0.0 mm 772.00 W/m2 CLR
14:29 16.2 °C 0.3 °C 1031.1 hPa ENE 16.7 km/h 9.5 km/h 34% 0.0 mm 772.00 W/m2 CLR
14:34 15.9 °C 0.1 °C 1031.0 hPa ESE 10.1 km/h 9.7 km/h 34% 0.0 mm 766.00 W/m2 CLR
14:39 16.1 °C 0.9 °C 1031.0 hPa East 16.7 km/h 12.2 km/h 36% 0.0 mm 758.00 W/m2 CLR
14:44 16.2 °C 1.1 °C 1030.9 hPa SSE 13.0 km/h 8.0 km/h 36% 0.0 mm 751.00 W/m2 CLR
14:49 16.7 °C 1.2 °C 1031.0 hPa East 15.3 km/h 15.1 km/h 35% 0.0 mm 742.00 W/m2 CLR
14:54 16.4 °C 0.4 °C 1030.7 hPa ESE 16.7 km/h 7.1 km/h 34% 0.0 mm 733.00 W/m2 CLR
14:59 16.4 °C 0.5 °C 1030.9 hPa East 20.4 km/h 11.7 km/h 34% 0.0 mm 722.00 W/m2 CLR
15:04 15.9 °C 0.1 °C 1030.7 hPa ENE 9.3 km/h 2.1 km/h 34% 0.0 mm 714.00 W/m2 CLR
15:09 16.6 °C 0.3 °C 1030.6 hPa East 13.0 km/h 6.6 km/h 33% 0.0 mm 708.00 W/m2 CLR
15:14 16.4 °C -0.3 °C 1030.6 hPa East 24.1 km/h 12.1 km/h 32% 0.0 mm 696.00 W/m2 CLR
15:19 16.6 °C -0.7 °C 1030.6 hPa East 18.5 km/h 14.5 km/h 31% 0.0 mm 696.00 W/m2 CLR
15:24 16.4 °C -0.8 °C 1030.5 hPa SSE 14.8 km/h 10.3 km/h 31% 0.0 mm 679.00 W/m2 CLR
15:29 16.5 °C -0.7 °C 1030.6 hPa South 18.5 km/h 10.9 km/h 31% 0.0 mm 675.00 W/m2 CLR
15:34 16.1 °C -1.5 °C 1030.5 hPa ENE 3.7 km/h 1.4 km/h 30% 0.0 mm 666.00 W/m2 CLR
15:39 16.8 °C 0.0 °C 1030.4 hPa SSE 9.3 km/h 6.4 km/h 32% 0.0 mm 659.00 W/m2 CLR
15:44 16.9 °C -0.3 °C 1030.4 hPa ENE 13.0 km/h 7.4 km/h 31% 0.0 mm 649.00 W/m2 CLR
15:49 16.6 °C 0.2 °C 1030.4 hPa ENE 11.9 km/h 4.8 km/h 33% 0.0 mm 638.00 W/m2 CLR
15:54 16.8 °C -0.4 °C 1030.3 hPa SSE 16.7 km/h 15.1 km/h 31% 0.0 mm 628.00 W/m2 CLR
15:59 16.7 °C -0.1 °C 1030.3 hPa ENE 20.3 km/h 9.5 km/h 32% 0.0 mm 615.00 W/m2 CLR
16:04 16.4 °C -1.7 °C 1030.3 hPa East 16.9 km/h 8.8 km/h 29% 0.0 mm 603.00 W/m2 CLR
16:09 16.4 °C -2.2 °C 1030.4 hPa ENE 20.3 km/h 12.9 km/h 28% 0.0 mm 596.00 W/m2 CLR
16:14 16.6 °C -2.0 °C 1030.3 hPa East 16.7 km/h 16.6 km/h 28% 0.0 mm 587.00 W/m2 CLR
16:19 16.6 °C -1.6 °C 1030.3 hPa East 16.7 km/h 7.7 km/h 29% 0.0 mm 573.00 W/m2 CLR
16:24 16.6 °C -1.1 °C 1030.2 hPa East 5.6 km/h 4.3 km/h 30% 0.0 mm 557.00 W/m2 CLR
16:29 16.6 °C -1.6 °C 1030.3 hPa East 18.5 km/h 14.8 km/h 29% 0.0 mm 543.00 W/m2 CLR
16:34 16.3 °C -0.9 °C 1030.3 hPa ESE 18.5 km/h 6.1 km/h 31% 0.0 mm 531.00 W/m2 CLR
16:39 16.3 °C -1.3 °C 1030.1 hPa NE 13.0 km/h 4.7 km/h 30% 0.0 mm 519.00 W/m2 CLR
16:44 16.4 °C -1.7 °C 1030.2 hPa ESE 16.7 km/h 8.8 km/h 29% 0.0 mm 504.00 W/m2 CLR
16:49 16.2 °C -2.3 °C 1030.2 hPa SE 20.3 km/h 12.9 km/h 28% 0.0 mm 496.00 W/m2 CLR
16:54 16.3 °C -1.3 °C 1030.2 hPa East 13.0 km/h 8.5 km/h 30% 0.0 mm 482.00 W/m2 CLR
16:59 16.1 °C -2.4 °C 1030.1 hPa ESE 13.0 km/h 9.0 km/h 28% 0.0 mm 469.00 W/m2 CLR
17:04 16.1 °C -1.9 °C 1030.1 hPa SSE 14.8 km/h 7.7 km/h 29% 0.0 mm 454.00 W/m2 CLR
17:09 16.1 °C -1.6 °C 1030.0 hPa SSE 13.0 km/h 9.2 km/h 30% 0.0 mm 441.00 W/m2 CLR
17:14 16.3 °C -1.3 °C 1029.9 hPa ESE 11.9 km/h 6.1 km/h 30% 0.0 mm 429.00 W/m2 CLR
17:19 16.2 °C -1.8 °C 1030.0 hPa East 20.4 km/h 11.3 km/h 29% 0.0 mm 417.00 W/m2 CLR
17:24 15.9 °C -2.1 °C 1029.9 hPa SE 11.9 km/h 11.3 km/h 29% 0.0 mm 403.00 W/m2 CLR
17:29 15.9 °C -1.6 °C 1030.0 hPa SE 27.8 km/h 6.1 km/h 30% 0.0 mm 387.00 W/m2 CLR
17:34 15.9 °C -1.6 °C 1030.0 hPa SSE 9.3 km/h 5.8 km/h 30% 0.0 mm 369.00 W/m2 CLR
17:39 15.8 °C -1.3 °C 1030.0 hPa East 15.3 km/h 11.9 km/h 31% 0.0 mm 355.00 W/m2 CLR
17:44 15.9 °C -2.6 °C 1030.0 hPa East 13.0 km/h 8.8 km/h 28% 0.0 mm 299.00 W/m2 CLR
17:49 15.7 °C -2.3 °C 1030.0 hPa ESE 14.8 km/h 9.3 km/h 29% 0.0 mm 37.00 W/m2 FEW
17:54 15.6 °C -1.5 °C 1030.0 hPa SSE 16.7 km/h 11.7 km/h 31% 0.0 mm 35.00 W/m2 BKN
17:59 15.6 °C -2.0 °C 1030.0 hPa East 9.3 km/h 5.1 km/h 30% 0.0 mm 35.00 W/m2 OVC
18:04 15.4 °C -1.2 °C 1029.9 hPa ENE 11.1 km/h 6.0 km/h 32% 0.0 mm 33.00 W/m2 OVC
18:09 15.3 °C -1.7 °C 1029.9 hPa East 8.4 km/h 8.5 km/h 31% 0.0 mm 33.00 W/m2 OVC
18:14 15.4 °C -1.2 °C 1029.9 hPa ESE 16.7 km/h 10.1 km/h 32% 0.0 mm 33.00 W/m2 OVC
18:19 15.2 °C -1.4 °C 1029.9 hPa East 13.0 km/h 6.3 km/h 32% 0.0 mm 32.00 W/m2 OVC
18:24 15.2 °C -0.9 °C 1029.9 hPa ESE 16.9 km/h 12.6 km/h 33% 0.0 mm 32.00 W/m2 OVC
18:29 15.2 °C -0.6 °C 1029.8 hPa East 9.3 km/h 8.2 km/h 34% 0.0 mm 32.00 W/m2 OVC
18:34 15.1 °C -0.7 °C 1029.8 hPa ESE 11.1 km/h 9.5 km/h 34% 0.0 mm 30.00 W/m2 OVC
18:39 15.0 °C -0.3 °C 1029.9 hPa ESE 9.3 km/h 3.9 km/h 35% 0.0 mm 30.00 W/m2 OVC
18:44 14.9 °C -0.4 °C 1029.8 hPa ESE 14.8 km/h 4.8 km/h 35% 0.0 mm 28.00 W/m2 OVC
18:49 14.8 °C -0.2 °C 1029.9 hPa SE 11.9 km/h 9.2 km/h 36% 0.0 mm 28.00 W/m2 OVC
18:54 14.6 °C 0.1 °C 1029.9 hPa ESE 5.6 km/h 6.3 km/h 37% 0.0 mm 26.00 W/m2 OVC
18:59 14.4 °C 0.3 °C 1029.9 hPa ESE 13.0 km/h 6.6 km/h 38% 0.0 mm 26.00 W/m2 OVC
19:04 14.4 °C -0.1 °C 1029.9 hPa East 13.0 km/h 6.6 km/h 37% 0.0 mm 25.00 W/m2 OVC
19:09 14.4 °C 0.2 °C 1029.9 hPa ENE 16.7 km/h 7.6 km/h 38% 0.0 mm 25.00 W/m2 BKN
19:14 14.3 °C 0.2 °C 1029.9 hPa ESE 11.1 km/h 4.3 km/h 38% 0.0 mm 23.00 W/m2 BKN
19:19 14.2 °C 0.1 °C 1030.0 hPa East 14.8 km/h 8.0 km/h 38% 0.0 mm 21.00 W/m2 BKN
19:24 14.2 °C 0.4 °C 1029.9 hPa East 7.4 km/h 3.1 km/h 39% 0.0 mm 19.00 W/m2 BKN
19:29 13.9 °C 0.6 °C 1030.0 hPa East 7.4 km/h 3.4 km/h 40% 0.0 mm 18.00 W/m2 BKN
19:34 13.8 °C 0.4 °C 1030.0 hPa ENE 9.3 km/h 2.4 km/h 40% 0.0 mm 16.00 W/m2 SCT
19:39 13.8 °C 0.4 °C 1030.0 hPa East 9.3 km/h 3.9 km/h 40% 0.0 mm 16.00 W/m2 SCT
19:44 13.7 °C 0.7 °C 1030.0 hPa ESE 3.7 km/h 1.3 km/h 41% 0.0 mm 14.00 W/m2 FEW
19:49 13.6 °C 0.6 °C 1030.0 hPa ESE 5.6 km/h 1.4 km/h 41% 0.0 mm 12.00 W/m2 CLR
19:54 13.5 °C 0.5 °C 1030.0 hPa ESE 5.6 km/h 1.4 km/h 41% 0.0 mm 11.00 W/m2 CLR
19:59 13.4 °C 0.8 °C 1030.1 hPa ESE 1.9 km/h 0.6 km/h 42% 0.0 mm 7.00 W/m2 OVC
20:04 13.3 °C 0.6 °C 1030.1 hPa ESE 5.6 km/h   42% 0.0 mm 5.00 W/m2 OVC
20:09 13.2 °C 0.2 °C 1030.1 hPa ESE 7.4 km/h 5.1 km/h 41% 0.0 mm 0.00 W/m2 OVC
20:14 13.2 °C 0.5 °C 1030.1 hPa ESE 5.6 km/h 2.6 km/h 42% 0.0 mm 0.00 W/m2 OVC
20:19 13.1 °C 0.8 °C 1030.1 hPa ESE 5.6 km/h 1.9 km/h 43% 0.0 mm 0.00 W/m2 OVC
20:24 12.9 °C 0.9 °C 1030.2 hPa ESE 5.6 km/h 2.1 km/h 44% 0.0 mm 0.00 W/m2 OVC
20:29 12.8 °C 0.9 °C 1030.2 hPa ESE 5.6 km/h 3.2 km/h 44% 0.0 mm 0.00 W/m2 CLR
20:34 12.6 °C 0.9 °C 1030.2 hPa ESE 5.6 km/h 1.3 km/h 45% 0.0 mm 0.00 W/m2 CLR
20:39 12.3 °C 0.7 °C 1030.2 hPa ESE 7.4 km/h 4.3 km/h 45% 0.0 mm 0.00 W/m2 CLR
© Wetterstation-Johanngeorgenstadt 2010-2018
Besucherstatistik
Besucher gesamt: 1.852.668
Besucher heute: 3.888
Besucher gestern: 4.612
gerade online: 74
Seitenaufrufe diese Seite: 4.797
counter Statistiken